createdAt,value
2022-08-25T00:00:44.489Z,2.37
2022-08-25T00:03:15.796Z,5.13
2022-08-25T00:06:06.592Z,3.50
2022-08-25T00:08:39.165Z,4.77
2022-08-25T00:11:12.075Z,2.50
2022-08-25T00:13:44.166Z,2.50
2022-08-25T00:16:16.807Z,3.30
2022-08-25T00:18:50.412Z,5.90
2022-08-25T00:21:21.735Z,3.07
2022-08-25T00:23:52.400Z,3.37
2022-08-25T00:26:23.293Z,3.17
2022-08-25T00:28:56.377Z,2.57
2022-08-25T00:31:37.569Z,3.10
2022-08-25T00:33:59.152Z,2.40
2022-08-25T00:36:30.002Z,6.10
2022-08-25T00:39:00.585Z,2.83
2022-08-25T00:41:31.178Z,3.30
2022-08-25T00:44:04.525Z,4.80
2022-08-25T00:46:38.320Z,4.67
2022-08-25T00:49:20.997Z,2.93
2022-08-25T00:51:46.783Z,5.33
2022-08-25T00:54:20.830Z,3.77
2022-08-25T00:56:53.334Z,2.50
2022-08-25T00:59:26.574Z,4.10
2022-08-25T01:01:59.097Z,3.73
2022-08-25T01:04:30.710Z,9.23
2022-08-25T01:07:02.040Z,3.00
2022-08-25T01:09:34.923Z,4.73
2022-08-25T01:12:06.727Z,4.10
2022-08-25T01:14:38.729Z,4.20
2022-08-25T01:17:11.361Z,3.20
2022-08-25T01:19:42.394Z,5.17
2022-08-25T01:22:13.079Z,2.30
2022-08-25T01:24:47.297Z,5.20
2022-08-25T01:27:18.048Z,4.00
2022-08-25T01:29:49.442Z,5.03
2022-08-25T01:32:20.012Z,5.50
2022-08-25T01:34:51.864Z,5.03
2022-08-25T01:37:22.837Z,2.93
2022-08-25T01:39:54.435Z,4.37
2022-08-25T01:42:41.332Z,4.70
2022-08-25T01:45:12.653Z,5.47
2022-08-25T01:47:43.233Z,2.70
2022-08-25T01:50:14.210Z,3.53
2022-08-25T01:52:53.056Z,5.20
2022-08-25T01:55:23.662Z,2.50
2022-08-25T01:57:54.509Z,3.03
2022-08-25T02:00:26.365Z,2.67
2022-08-25T02:02:57.861Z,4.73
2022-08-25T02:05:28.755Z,2.83
2022-08-25T02:08:02.283Z,8.83
2022-08-25T02:10:33.449Z,3.10
2022-08-25T02:13:04.536Z,2.80
2022-08-25T02:15:37.322Z,4.43
2022-08-25T02:18:08.084Z,2.80
2022-08-25T02:20:38.675Z,3.00
2022-08-25T02:23:10.475Z,2.90
2022-08-25T02:25:42.358Z,2.97
2022-08-25T02:28:13.254Z,7.27
2022-08-25T02:30:44.887Z,2.90
2022-08-25T02:33:15.588Z,3.23
2022-08-25T02:35:46.307Z,3.20
2022-08-25T02:38:16.968Z,4.00
2022-08-25T02:40:47.538Z,3.30
2022-08-25T02:43:18.111Z,5.53
2022-08-25T02:45:48.837Z,4.43
2022-08-25T02:48:19.888Z,3.83
2022-08-25T02:50:52.786Z,4.33
2022-08-25T02:53:23.988Z,3.07
2022-08-25T02:55:54.915Z,3.20
2022-08-25T02:58:25.788Z,2.70
2022-08-25T03:00:56.975Z,4.43
2022-08-25T03:03:28.326Z,4.43
2022-08-25T03:05:58.887Z,3.33
2022-08-25T03:08:29.503Z,3.10
2022-08-25T03:11:00.221Z,5.37
2022-08-25T03:13:30.853Z,6.63
2022-08-25T03:16:03.059Z,3.13
2022-08-25T03:18:34.374Z,3.03
2022-08-25T03:21:05.044Z,5.57
2022-08-25T03:23:35.724Z,4.60
2022-08-25T03:26:25.067Z,3.93
2022-08-25T03:28:55.988Z,5.90
2022-08-25T03:31:28.061Z,3.97
2022-08-25T03:33:59.505Z,4.03
2022-08-25T03:36:30.974Z,4.17
2022-08-25T03:39:01.607Z,7.10
2022-08-25T03:41:33.789Z,5.27
2022-08-25T03:44:06.193Z,3.63
2022-08-25T03:46:39.063Z,4.20
2022-08-25T03:49:11.674Z,6.30
2022-08-25T03:51:45.671Z,5.47
2022-08-25T03:54:17.414Z,5.30
2022-08-25T03:56:48.387Z,5.83
2022-08-25T03:59:19.063Z,7.17
2022-08-25T04:01:54.822Z,4.10
2022-08-25T04:04:23.593Z,5.50
2022-08-25T04:06:54.298Z,4.43
2022-08-25T04:09:25.742Z,4.27
2022-08-25T04:11:56.437Z,4.17
2022-08-25T04:14:27.684Z,4.80
2022-08-25T04:16:58.327Z,3.93
2022-08-25T04:19:29.303Z,3.70
2022-08-25T04:22:00.705Z,5.07
2022-08-25T04:24:31.414Z,4.80
2022-08-25T04:27:02.124Z,4.97
2022-08-25T04:29:32.857Z,4.53
2022-08-25T04:34:41.672Z,4.03
2022-08-25T04:37:12.382Z,8.03
2022-08-25T04:39:43.448Z,5.93
2022-08-25T04:42:14.124Z,5.60
2022-08-25T04:44:44.960Z,7.00
2022-08-25T04:47:15.646Z,4.37
2022-08-25T04:49:46.376Z,4.03
2022-08-25T04:52:17.067Z,5.37
2022-08-25T04:54:48.377Z,6.83
2022-08-25T04:57:19.042Z,7.57
2022-08-25T04:59:50.008Z,6.40
2022-08-25T05:02:20.793Z,4.10
2022-08-25T05:04:51.377Z,4.37
2022-08-25T05:07:22.112Z,3.63
2022-08-25T05:09:52.872Z,3.40
2022-08-25T05:12:23.538Z,4.83
2022-08-25T05:14:55.660Z,4.23
2022-08-25T05:17:26.303Z,4.33
2022-08-25T05:19:56.917Z,4.23
2022-08-25T05:22:27.688Z,4.50
2022-08-25T05:24:58.279Z,5.50
2022-08-25T05:27:29.075Z,9.67
2022-08-25T05:29:59.639Z,6.20
2022-08-25T05:32:30.244Z,6.03
2022-08-25T05:35:00.900Z,4.50
2022-08-25T05:37:31.514Z,6.60
2022-08-25T05:40:02.202Z,4.33
2022-08-25T05:42:32.998Z,9.03
2022-08-25T05:45:03.893Z,5.20
2022-08-25T05:47:35.282Z,7.80
2022-08-25T05:50:07.423Z,8.30
2022-08-25T05:52:37.986Z,5.43
2022-08-25T05:55:10.815Z,4.87
2022-08-25T05:57:41.744Z,4.43
2022-08-25T06:00:14.411Z,5.77
2022-08-25T06:02:46.460Z,7.80
2022-08-25T06:05:19.032Z,5.17
2022-08-25T06:07:52.524Z,6.23
2022-08-25T06:10:23.623Z,6.27
2022-08-25T06:12:54.333Z,6.20
2022-08-25T06:15:37.949Z,5.93
2022-08-25T06:18:08.749Z,9.90
2022-08-25T06:20:39.604Z,10.23
2022-08-25T06:23:10.247Z,10.70
2022-08-25T06:25:40.982Z,13.77
2022-08-25T06:28:11.600Z,8.60
2022-08-25T06:30:48.357Z,6.83
2022-08-25T06:33:19.030Z,6.30
2022-08-25T06:35:49.714Z,5.80
2022-08-25T06:38:20.343Z,6.40
2022-08-25T06:40:52.550Z,5.00
2022-08-25T06:43:23.612Z,5.10
2022-08-25T06:45:54.190Z,7.20
2022-08-25T06:48:24.910Z,7.40
2022-08-25T06:50:55.536Z,9.00
2022-08-25T06:53:26.191Z,6.97
2022-08-25T06:56:05.918Z,5.60
2022-08-25T06:58:34.035Z,5.17
2022-08-25T07:01:15.762Z,6.63
2022-08-25T07:03:45.079Z,4.57
2022-08-25T07:06:18.244Z,6.10
2022-08-25T07:08:49.617Z,6.00
2022-08-25T07:11:21.119Z,9.27
2022-08-25T07:13:52.736Z,6.00
2022-08-25T07:16:29.883Z,5.67
2022-08-25T07:18:57.444Z,9.53
2022-08-25T07:21:33.651Z,4.93
2022-08-25T07:26:46.751Z,11.10
2022-08-25T07:29:20.333Z,6.47
2022-08-25T07:31:52.860Z,6.53
2022-08-25T07:34:41.565Z,7.17
2022-08-25T07:37:23.763Z,8.37
2022-08-25T07:39:46.400Z,6.30
2022-08-25T07:42:17.182Z,6.03
2022-08-25T07:44:49.299Z,4.83
2022-08-25T07:47:20.054Z,6.00
2022-08-25T07:49:52.726Z,3.77
2022-08-25T07:52:23.795Z,4.10
2022-08-25T07:54:55.350Z,7.77
2022-08-25T07:57:27.189Z,6.07
2022-08-25T07:59:58.812Z,4.53
2022-08-25T08:02:30.334Z,4.80
2022-08-25T08:05:01.673Z,7.27
2022-08-25T08:07:42.361Z,7.77
2022-08-25T08:10:33.231Z,8.43
2022-08-25T08:12:38.329Z,10.25
2022-08-25T08:15:10.877Z,5.57
2022-08-25T08:17:42.418Z,4.57
2022-08-25T08:20:14.332Z,10.43
2022-08-25T08:22:46.216Z,7.97
2022-08-25T08:25:18.624Z,5.57
2022-08-25T08:27:51.021Z,6.12
2022-08-25T08:30:25.902Z,9.20
2022-08-25T08:33:09.751Z,9.73
2022-08-25T08:35:29.287Z,6.87
2022-08-25T08:38:00.442Z,5.10
2022-08-25T08:40:33.150Z,6.85
2022-08-25T08:43:18.207Z,8.38
2022-08-25T08:45:43.569Z,9.35
2022-08-25T08:48:44.541Z,8.38
2022-08-25T08:51:23.125Z,6.33
2022-08-25T08:53:58.065Z,6.80
2022-08-25T08:59:14.138Z,7.33
2022-08-25T09:01:53.958Z,8.88
2022-08-25T09:04:24.333Z,7.05
2022-08-25T09:06:56.563Z,10.72
2022-08-25T09:09:30.330Z,10.53
2022-08-25T09:12:06.471Z,8.65
2022-08-25T09:14:53.647Z,14.90
2022-08-25T09:17:25.170Z,10.35
2022-08-25T09:20:24.041Z,9.48
2022-08-25T09:22:58.719Z,11.53
2022-08-25T09:25:53.099Z,14.30
2022-08-25T09:28:11.876Z,10.25
2022-08-25T09:30:47.737Z,9.70
2022-08-25T09:33:21.792Z,8.90
2022-08-25T09:35:54.457Z,8.93
2022-08-25T09:38:29.181Z,11.15
2022-08-25T09:41:03.201Z,8.55
2022-08-25T09:43:37.790Z,5.37
2022-08-25T09:46:15.042Z,13.65
2022-08-25T09:48:55.939Z,8.88
2022-08-25T09:51:24.491Z,9.78
2022-08-25T09:53:58.625Z,9.83
2022-08-25T09:56:31.967Z,6.83
2022-08-25T10:02:01.193Z,5.80
2022-08-25T10:04:36.694Z,10.75
2022-08-25T10:07:22.214Z,7.47
2022-08-25T10:09:57.007Z,9.10
2022-08-25T10:12:32.698Z,6.37
2022-08-25T10:15:14.155Z,4.62
2022-08-25T10:17:46.123Z,3.92
2022-08-25T10:20:23.427Z,6.95
2022-08-25T10:22:56.365Z,6.05
2022-08-25T10:25:31.347Z,6.72
2022-08-25T10:28:07.594Z,2.70
2022-08-25T10:30:43.048Z,3.42
2022-08-25T10:33:18.984Z,2.95
2022-08-25T10:35:56.236Z,4.42
2022-08-25T10:38:36.433Z,5.28
2022-08-25T10:41:14.536Z,2.98
2022-08-25T10:43:48.053Z,7.80
2022-08-25T10:46:21.266Z,5.22
2022-08-25T10:49:01.968Z,4.87
2022-08-25T10:51:41.961Z,4.70
2022-08-25T10:54:35.142Z,2.67
2022-08-25T10:59:56.716Z,5.72
2022-08-25T11:02:50.981Z,3.65
2022-08-25T11:05:27.683Z,5.05
2022-08-25T11:08:04.884Z,3.35
2022-08-25T11:10:40.453Z,3.02
2022-08-25T11:13:15.732Z,3.50
2022-08-25T11:16:13.761Z,3.12
2022-08-25T11:18:25.962Z,4.62
2022-08-25T11:21:00.423Z,1.67
2022-08-25T11:23:34.911Z,3.12
2022-08-25T11:28:55.790Z,3.10
2022-08-25T11:31:28.264Z,4.22
2022-08-25T11:34:00.117Z,2.67
2022-08-25T11:36:35.660Z,2.62
2022-08-25T11:39:14.318Z,3.30
2022-08-25T11:41:53.407Z,3.27
2022-08-25T11:44:53.349Z,2.20
2022-08-25T11:47:37.223Z,1.70
2022-08-25T11:50:12.010Z,5.20
2022-08-25T11:52:53.862Z,5.20
2022-08-25T11:55:30.210Z,2.37
2022-08-25T11:58:27.214Z,5.62
2022-08-25T12:00:59.777Z,3.08
2022-08-25T12:03:58.022Z,3.33
2022-08-25T12:06:32.105Z,3.42
2022-08-25T12:09:22.964Z,5.65
2022-08-25T12:11:58.357Z,1.85
2022-08-25T12:17:42.634Z,5.62
2022-08-25T12:20:13.288Z,6.53
2022-08-25T12:22:57.247Z,2.70
2022-08-25T12:25:47.139Z,2.10
2022-08-25T12:28:50.358Z,4.08
2022-08-25T12:31:33.028Z,3.80
2022-08-25T12:34:15.146Z,4.10
2022-08-25T12:36:58.249Z,1.92
2022-08-25T12:39:35.124Z,4.28
2022-08-25T12:42:08.598Z,2.67
2022-08-25T12:44:48.050Z,4.87
2022-08-25T12:47:33.081Z,2.62
2022-08-25T12:50:33.525Z,1.65
2022-08-25T12:53:13.424Z,1.98
2022-08-25T12:55:47.673Z,5.80
2022-08-25T12:58:19.611Z,4.53
2022-08-25T13:01:27.561Z,1.87
2022-08-25T13:04:04.131Z,1.87
2022-08-25T13:06:48.970Z,2.98
2022-08-25T13:09:49.838Z,2.67
2022-08-25T13:15:01.390Z,4.67
2022-08-25T13:17:34.895Z,5.40
2022-08-25T13:20:17.354Z,2.08
2022-08-25T13:22:55.260Z,2.83
2022-08-25T13:25:32.430Z,4.67
2022-08-25T13:28:00.336Z,4.10
2022-08-25T13:30:33.426Z,3.85
2022-08-25T13:33:20.185Z,3.62
2022-08-25T13:35:55.685Z,4.17
2022-08-25T13:38:28.229Z,2.42
2022-08-25T13:41:09.284Z,3.45
2022-08-25T13:43:39.942Z,2.25
2022-08-25T13:46:11.795Z,1.50
2022-08-25T13:48:49.676Z,2.98
2022-08-25T13:51:24.938Z,7.60
2022-08-25T13:54:00.216Z,2.77
2022-08-25T13:56:38.762Z,2.62
2022-08-25T13:59:09.897Z,2.27
2022-08-25T14:01:50.067Z,2.98
2022-08-25T14:04:32.892Z,3.33
2022-08-25T14:07:19.557Z,2.70
2022-08-25T14:09:52.462Z,3.67
2022-08-25T14:12:36.639Z,3.02
2022-08-25T14:15:15.173Z,2.30
2022-08-25T14:18:06.084Z,2.62
2022-08-25T14:20:39.267Z,1.47
2022-08-25T14:23:16.253Z,4.87
2022-08-25T14:25:46.347Z,3.30
2022-08-25T14:28:19.572Z,2.40
2022-08-25T14:30:53.106Z,3.25
2022-08-25T14:33:26.304Z,2.52
2022-08-25T14:35:59.258Z,4.15
2022-08-25T14:38:30.280Z,3.37
2022-08-25T14:41:00.889Z,1.82
2022-08-25T14:43:32.328Z,2.67
2022-08-25T14:46:04.829Z,2.72
2022-08-25T14:48:38.817Z,1.77
2022-08-25T14:51:09.854Z,4.90
2022-08-25T14:53:40.950Z,2.20
2022-08-25T14:56:12.232Z,2.30
2022-08-25T14:58:51.252Z,2.27
2022-08-25T15:01:18.110Z,1.72
2022-08-25T15:03:52.673Z,2.47
2022-08-25T15:06:23.446Z,2.10
2022-08-25T15:09:11.442Z,5.85
2022-08-25T15:11:44.958Z,3.62
2022-08-25T15:14:17.508Z,7.87
2022-08-25T15:16:51.126Z,1.57
2022-08-25T15:19:23.928Z,3.33
2022-08-25T15:21:58.030Z,2.92
2022-08-25T15:24:28.891Z,2.58
2022-08-25T15:27:01.768Z,2.98
2022-08-25T15:29:35.318Z,5.25
2022-08-25T15:32:08.889Z,1.87
2022-08-25T15:34:39.703Z,3.30
2022-08-25T15:37:12.838Z,2.25
2022-08-25T15:39:45.086Z,4.12
2022-08-25T15:42:16.724Z,4.87
2022-08-25T15:44:53.413Z,1.57
2022-08-25T15:47:20.836Z,1.45
2022-08-25T15:49:51.613Z,2.75
2022-08-25T15:52:23.073Z,1.27
2022-08-25T15:54:54.857Z,2.92
2022-08-25T15:57:25.643Z,2.85
2022-08-25T15:59:56.253Z,3.27
2022-08-25T16:02:29.057Z,1.67
2022-08-25T16:04:59.692Z,1.85
2022-08-25T16:07:30.677Z,2.25
2022-08-25T16:10:01.897Z,1.25
2022-08-25T16:12:34.078Z,1.25
2022-08-25T16:15:06.077Z,1.50
2022-08-25T16:17:38.368Z,3.02
2022-08-25T16:20:13.961Z,3.15
2022-08-25T16:22:45.034Z,1.27
2022-08-25T16:25:16.645Z,2.55
2022-08-25T16:27:48.462Z,1.35
2022-08-25T16:30:19.585Z,2.65
2022-08-25T16:32:55.698Z,1.22
2022-08-25T16:35:28.089Z,1.65
2022-08-25T16:38:00.631Z,2.27
2022-08-25T16:40:32.975Z,1.80
2022-08-25T16:43:03.863Z,0.90
2022-08-25T16:45:34.447Z,2.27
2022-08-25T16:48:06.622Z,1.80
2022-08-25T16:50:38.800Z,2.08
2022-08-25T16:53:27.257Z,1.40
2022-08-25T16:56:05.781Z,3.10
2022-08-25T16:58:37.109Z,1.32
2022-08-25T17:01:11.618Z,1.17
2022-08-25T17:03:44.190Z,2.20
2022-08-25T17:06:15.438Z,1.40
2022-08-25T17:08:46.021Z,1.92
2022-08-25T17:11:19.157Z,2.72
2022-08-25T17:13:52.273Z,2.08
2022-08-25T17:16:26.669Z,1.27
2022-08-25T17:18:58.312Z,1.47
2022-08-25T17:21:30.927Z,2.83
2022-08-25T17:24:01.727Z,1.98
2022-08-25T17:26:34.153Z,1.35
2022-08-25T17:29:05.659Z,1.42
2022-08-25T17:31:39.514Z,1.80
2022-08-25T17:34:16.482Z,1.20
2022-08-25T17:36:45.891Z,3.37
2022-08-25T17:39:18.524Z,2.98
2022-08-25T17:41:49.171Z,3.33
2022-08-25T17:44:21.606Z,3.85
2022-08-25T17:46:53.336Z,1.50
2022-08-25T17:49:24.185Z,1.70
2022-08-25T17:51:54.768Z,2.08
2022-08-25T17:54:25.505Z,2.45
2022-08-25T17:56:56.593Z,1.80
2022-08-25T17:59:27.882Z,3.10
2022-08-25T18:02:00.404Z,1.20
2022-08-25T18:04:31.137Z,1.77
2022-08-25T18:07:01.984Z,2.15
2022-08-25T18:09:32.677Z,2.05
2022-08-25T18:12:06.495Z,2.85
2022-08-25T18:14:37.208Z,1.37
2022-08-25T18:17:07.992Z,2.22
2022-08-25T18:19:41.647Z,2.87
2022-08-25T18:22:12.408Z,3.80
2022-08-25T18:24:44.753Z,2.05
2022-08-25T18:27:16.698Z,5.78
2022-08-25T18:29:49.033Z,2.83
2022-08-25T18:32:21.403Z,2.30
2022-08-25T18:34:54.325Z,1.67
2022-08-25T18:37:43.252Z,2.67
2022-08-25T18:40:25.786Z,1.57
2022-08-25T18:42:58.761Z,1.22
2022-08-25T18:45:32.913Z,1.47
2022-08-25T18:48:06.604Z,2.30
2022-08-25T18:50:39.809Z,1.87
2022-08-25T18:53:11.629Z,3.65
2022-08-25T18:55:43.434Z,4.17
2022-08-25T18:58:14.527Z,3.12
2022-08-25T19:00:46.011Z,4.35
2022-08-25T19:03:19.089Z,1.80
2022-08-25T19:05:57.187Z,2.02
2022-08-25T19:08:23.184Z,1.85
2022-08-25T19:10:56.411Z,3.00
2022-08-25T19:13:27.153Z,1.70
2022-08-25T19:15:58.306Z,3.95
2022-08-25T19:18:29.304Z,2.30
2022-08-25T19:21:02.437Z,1.85
2022-08-25T19:23:35.754Z,2.15
2022-08-25T19:28:45.914Z,1.47
2022-08-25T19:31:15.546Z,2.12
2022-08-25T19:33:48.424Z,1.92
2022-08-25T19:36:23.044Z,1.12
2022-08-25T19:42:03.533Z,6.10
2022-08-25T19:44:36.171Z,4.00
2022-08-25T19:47:13.261Z,3.05
2022-08-25T19:49:42.930Z,1.52
2022-08-25T19:52:16.042Z,3.75
2022-08-25T19:54:48.351Z,2.90
2022-08-25T19:57:27.860Z,3.85
2022-08-25T19:59:51.472Z,3.12
2022-08-25T20:02:25.330Z,1.30
2022-08-25T20:05:00.202Z,4.65
2022-08-25T20:07:35.732Z,2.62
2022-08-25T20:10:09.025Z,1.12
2022-08-25T20:12:41.486Z,2.95
2022-08-25T20:15:13.984Z,2.77
2022-08-25T20:17:46.369Z,3.12
2022-08-25T20:20:19.606Z,4.00
2022-08-25T20:22:51.272Z,5.85
2022-08-25T20:25:24.560Z,3.90
2022-08-25T20:27:57.182Z,13.40
2022-08-25T20:30:29.743Z,2.00
2022-08-25T20:33:00.907Z,5.23
2022-08-25T20:35:31.929Z,5.57
2022-08-25T20:38:02.532Z,3.93
2022-08-25T20:40:33.540Z,4.57
2022-08-25T20:43:04.590Z,3.13
2022-08-25T20:45:35.412Z,1.90
2022-08-25T20:48:07.419Z,1.63
2022-08-25T20:50:40.749Z,2.50
2022-08-25T20:53:13.602Z,2.90
2022-08-25T20:55:45.016Z,4.93
2022-08-25T20:58:15.834Z,2.93
2022-08-25T21:00:46.734Z,1.70
2022-08-25T21:03:17.682Z,2.03
2022-08-25T21:05:53.968Z,1.60
2022-08-25T21:08:23.747Z,2.13
2022-08-25T21:10:54.569Z,5.23
2022-08-25T21:13:25.179Z,1.40
2022-08-25T21:15:55.794Z,1.30
2022-08-25T21:18:31.436Z,1.73
2022-08-25T21:20:58.939Z,1.87
2022-08-25T21:23:29.565Z,1.40
2022-08-25T21:26:00.153Z,1.73
2022-08-25T21:28:30.852Z,1.40
2022-08-25T21:31:01.527Z,1.77
2022-08-25T21:33:32.244Z,3.00
2022-08-25T21:36:02.864Z,1.70
2022-08-25T21:38:35.159Z,2.20
2022-08-25T21:41:11.053Z,2.37
2022-08-25T21:43:41.848Z,4.27
2022-08-25T21:46:16.036Z,1.47
2022-08-25T21:48:47.556Z,3.00
2022-08-25T21:51:21.874Z,5.40
2022-08-25T21:53:56.382Z,2.53
2022-08-25T21:56:27.028Z,3.80
2022-08-25T21:58:57.635Z,1.80
2022-08-25T22:01:28.578Z,1.70
2022-08-25T22:03:59.297Z,2.10
2022-08-25T22:06:30.490Z,3.70
2022-08-25T22:09:01.794Z,2.13
2022-08-25T22:11:36.011Z,1.47
2022-08-25T22:14:05.694Z,1.57
2022-08-25T22:16:38.879Z,1.80
2022-08-25T22:19:12.007Z,2.10
2022-08-25T22:21:44.430Z,1.60
2022-08-25T22:24:15.155Z,3.23
2022-08-25T22:26:47.426Z,2.10
2022-08-25T22:29:25.009Z,1.60
2022-08-25T22:31:52.914Z,2.87
2022-08-25T22:34:30.717Z,4.80
2022-08-25T22:36:59.653Z,1.70
2022-08-25T22:39:28.550Z,1.70
2022-08-25T22:41:59.282Z,1.60
2022-08-25T22:44:30.331Z,3.50
2022-08-25T22:47:00.984Z,2.07
2022-08-25T22:49:31.737Z,1.50
2022-08-25T22:52:02.724Z,2.20
2022-08-25T22:54:34.265Z,3.17
2022-08-25T22:57:06.827Z,1.63
2022-08-25T22:59:37.281Z,3.07
2022-08-25T23:02:09.555Z,2.87
2022-08-25T23:04:41.495Z,4.33
2022-08-25T23:07:13.456Z,4.67
2022-08-25T23:09:44.679Z,4.33
2022-08-25T23:12:34.095Z,2.60
2022-08-25T23:15:05.412Z,2.80
2022-08-25T23:17:36.090Z,1.60
2022-08-25T23:20:27.935Z,2.57
2022-08-25T23:22:58.650Z,3.20
2022-08-25T23:25:29.534Z,2.10
2022-08-25T23:28:00.987Z,1.73
2022-08-25T23:30:32.075Z,1.83
2022-08-25T23:33:03.169Z,1.83
2022-08-25T23:35:34.794Z,1.70
2022-08-25T23:38:05.403Z,1.63
2022-08-25T23:40:35.946Z,1.30
2022-08-25T23:43:06.960Z,2.60
2022-08-25T23:45:37.830Z,1.53
2022-08-25T23:48:10.264Z,2.07
2022-08-25T23:50:46.689Z,2.20
2022-08-25T23:53:20.801Z,1.70
2022-08-25T23:55:54.029Z,2.27
2022-08-25T23:58:25.511Z,4.53
